createdAt,value
2018-04-07T00:02:24.082Z,53.20
2018-04-07T00:04:59.294Z,53.20
2018-04-07T00:07:34.458Z,53.30
2018-04-07T00:10:09.573Z,53.50
2018-04-07T00:12:44.758Z,53.30
2018-04-07T00:15:20.827Z,53.20
2018-04-07T00:17:55.959Z,53.20
2018-04-07T00:20:31.283Z,53.20
2018-04-07T00:23:06.365Z,53.90
2018-04-07T00:25:42.361Z,54.20
2018-04-07T00:28:17.436Z,53.60
2018-04-07T00:30:53.457Z,53.80
2018-04-07T00:33:28.556Z,53.80
2018-04-07T00:36:04.083Z,53.20
2018-04-07T00:38:39.267Z,52.70
2018-04-07T00:41:14.545Z,52.90
2018-04-07T00:43:49.795Z,53.20
2018-04-07T00:46:24.817Z,52.70
2018-04-07T00:49:00.024Z,53.40
2018-04-07T00:51:35.127Z,52.90
2018-04-07T00:54:10.353Z,52.80
2018-04-07T00:56:45.562Z,52.90
2018-04-07T00:59:21.575Z,52.90
2018-04-07T01:01:56.760Z,53.50
2018-04-07T01:04:31.978Z,52.70
2018-04-07T01:07:07.243Z,52.60
2018-04-07T01:09:42.448Z,52.40
2018-04-07T01:12:17.619Z,52.50
2018-04-07T01:14:52.844Z,52.60
2018-04-07T01:17:28.084Z,52.80
2018-04-07T01:20:03.364Z,52.80
2018-04-07T01:22:38.500Z,54.00
2018-04-07T01:25:13.721Z,55.80
2018-04-07T01:27:48.909Z,55.90
2018-04-07T01:30:24.146Z,55.60
2018-04-07T01:33:00.014Z,55.90
2018-04-07T01:35:35.214Z,55.80
2018-04-07T01:38:10.412Z,56.80
2018-04-07T01:40:45.632Z,56.50
2018-04-07T01:43:20.894Z,56.00
2018-04-07T01:45:55.936Z,56.00
2018-04-07T01:48:31.228Z,56.20
2018-04-07T01:51:06.457Z,57.50
2018-04-07T01:53:41.692Z,58.80
2018-04-07T01:56:16.957Z,59.30
2018-04-07T01:58:52.225Z,58.20
2018-04-07T02:01:27.456Z,58.70
2018-04-07T02:04:02.781Z,59.00
2018-04-07T02:06:38.685Z,60.70
2018-04-07T02:09:13.786Z,60.70
2018-04-07T02:11:49.029Z,58.60
2018-04-07T02:14:24.404Z,59.60
2018-04-07T02:16:59.531Z,60.10
2018-04-07T02:19:34.930Z,61.20
2018-04-07T02:22:10.066Z,62.30
2018-04-07T02:24:45.343Z,63.00
2018-04-07T02:27:20.452Z,62.30
2018-04-07T02:29:55.661Z,62.90
2018-04-07T02:32:30.924Z,62.20
2018-04-07T02:35:06.001Z,63.30
2018-04-07T02:37:41.967Z,63.90
2018-04-07T02:40:17.279Z,63.90
2018-04-07T02:42:52.441Z,63.00
2018-04-07T02:45:27.619Z,63.70
2018-04-07T02:48:02.955Z,63.80
2018-04-07T02:50:38.134Z,64.60
2018-04-07T02:53:13.370Z,65.10
2018-04-07T02:55:48.572Z,67.30
2018-04-07T02:58:23.743Z,66.00
2018-04-07T03:00:58.993Z,66.80
2018-04-07T03:03:34.127Z,65.60
2018-04-07T03:08:51.383Z,65.80
2018-04-07T03:11:26.451Z,65.70
2018-04-07T03:14:01.631Z,66.00
2018-04-07T03:16:37.654Z,67.30
2018-04-07T03:19:12.768Z,67.40
2018-04-07T03:21:48.102Z,68.50
2018-04-07T03:24:23.398Z,69.00
2018-04-07T03:26:58.715Z,67.60
2018-04-07T03:29:33.988Z,68.00
2018-04-07T03:32:09.081Z,67.10
2018-04-07T03:34:44.990Z,69.30
2018-04-07T03:37:20.182Z,69.30
2018-04-07T03:39:56.133Z,68.50
2018-04-07T03:42:31.351Z,68.50
2018-04-07T03:45:06.586Z,70.10
2018-04-07T03:47:41.662Z,67.80
2018-04-07T03:50:16.738Z,69.90
2018-04-07T03:52:51.864Z,70.30
2018-04-07T03:55:27.064Z,69.60
2018-04-07T03:58:02.310Z,70.30
2018-04-07T04:00:38.186Z,71.90
2018-04-07T04:03:13.482Z,71.90
2018-04-07T04:05:48.672Z,72.70
2018-04-07T04:08:23.801Z,72.80
2018-04-07T04:10:58.990Z,72.20
2018-04-07T04:13:34.239Z,72.00
2018-04-07T04:16:09.510Z,70.60
2018-04-07T04:18:44.763Z,70.80
2018-04-07T04:21:19.995Z,70.90
2018-04-07T04:23:55.854Z,72.70
2018-04-07T04:26:30.935Z,72.70
2018-04-07T04:29:06.927Z,72.60
2018-04-07T04:31:42.029Z,72.70
2018-04-07T04:34:17.233Z,72.90
2018-04-07T04:36:52.474Z,73.40
2018-04-07T04:39:27.567Z,73.20
2018-04-07T04:42:02.862Z,73.70
2018-04-07T04:44:38.844Z,72.70
2018-04-07T04:47:13.983Z,72.60
2018-04-07T04:49:49.227Z,72.50
2018-04-07T04:52:24.385Z,73.00
2018-04-07T04:54:59.640Z,73.20
2018-04-07T04:57:34.665Z,74.90
2018-04-07T05:00:09.912Z,74.00
2018-04-07T05:02:45.114Z,71.40
2018-04-07T05:05:20.290Z,70.70
2018-04-07T05:07:55.341Z,70.70
2018-04-07T05:10:31.274Z,70.70
2018-04-07T05:13:06.371Z,70.80
2018-04-07T05:15:42.422Z,70.50
2018-04-07T05:18:17.664Z,70.50
2018-04-07T05:20:52.838Z,70.70
2018-04-07T05:23:28.060Z,71.20
2018-04-07T05:26:03.403Z,69.30
2018-04-07T05:28:38.634Z,70.00
2018-04-07T05:31:14.722Z,69.60
2018-04-07T05:33:49.832Z,69.60
2018-04-07T05:36:25.139Z,66.80
2018-04-07T05:39:00.207Z,65.60
2018-04-07T05:41:35.523Z,63.90
2018-04-07T05:44:10.650Z,61.00
2018-04-07T05:46:45.838Z,59.80
2018-04-07T05:49:21.126Z,59.00
2018-04-07T05:51:57.065Z,56.40
2018-04-07T05:54:32.293Z,56.40
2018-04-07T05:57:07.531Z,56.10
2018-04-07T05:59:43.032Z,52.70
2018-04-07T06:02:18.291Z,52.30
2018-04-07T06:04:53.559Z,51.90
2018-04-07T06:07:28.858Z,49.40
2018-04-07T06:10:04.897Z,45.80
2018-04-07T06:12:40.040Z,45.60
2018-04-07T06:15:15.159Z,45.70
2018-04-07T06:17:50.275Z,45.70
2018-04-07T06:20:25.411Z,43.30
2018-04-07T06:23:01.289Z,40.80
2018-04-07T06:25:36.390Z,40.80
2018-04-07T06:28:12.451Z,39.90
2018-04-07T06:30:47.565Z,39.90
2018-04-07T06:33:23.592Z,38.80
2018-04-07T06:35:58.771Z,38.80
2018-04-07T06:38:33.940Z,37.90
2018-04-07T06:41:09.175Z,37.40
2018-04-07T06:43:44.480Z,35.80
2018-04-07T06:46:19.741Z,34.80
2018-04-07T06:48:55.063Z,34.60
2018-04-07T06:51:31.066Z,33.70
2018-04-07T06:54:06.309Z,33.70
2018-04-07T06:56:41.561Z,33.90
2018-04-07T06:59:17.576Z,34.20
2018-04-07T07:01:52.764Z,34.10
2018-04-07T07:04:28.585Z,33.60
2018-04-07T07:07:03.820Z,33.50
2018-04-07T07:09:39.755Z,33.30
2018-04-07T07:12:15.621Z,32.30
2018-04-07T07:14:50.680Z,32.30
2018-04-07T07:17:25.862Z,32.70
2018-04-07T07:20:01.126Z,32.20
2018-04-07T07:22:36.371Z,32.30
2018-04-07T07:25:11.740Z,31.40
2018-04-07T07:27:47.670Z,30.00
2018-04-07T07:30:23.617Z,29.20
2018-04-07T07:32:58.823Z,29.10
2018-04-07T07:35:34.062Z,28.80
2018-04-07T07:38:09.987Z,28.00
2018-04-07T07:40:46.034Z,26.60
2018-04-07T07:43:21.160Z,26.60
2018-04-07T07:45:56.412Z,27.70
2018-04-07T07:48:31.550Z,28.30
2018-04-07T07:51:06.654Z,29.30
2018-04-07T07:53:42.650Z,30.00
2018-04-07T07:56:17.792Z,30.00
2018-04-07T07:58:53.030Z,29.50
2018-04-07T08:01:28.250Z,30.40
2018-04-07T08:04:04.122Z,31.50
2018-04-07T08:06:40.098Z,30.70
2018-04-07T08:09:15.366Z,30.70
2018-04-07T08:11:50.602Z,28.80
2018-04-07T08:14:25.834Z,29.40
2018-04-07T08:17:01.818Z,29.70
2018-04-07T08:19:36.929Z,29.70
2018-04-07T08:22:12.743Z,30.50
2018-04-07T08:24:47.996Z,31.40
2018-04-07T08:27:23.867Z,31.00
2018-04-07T08:29:59.178Z,31.00
2018-04-07T08:32:34.352Z,30.40
2018-04-07T08:35:09.449Z,28.50
2018-04-07T08:37:45.426Z,28.70
2018-04-07T08:40:20.557Z,28.70
2018-04-07T08:42:55.733Z,28.00
2018-04-07T08:45:30.921Z,28.00
2018-04-07T08:48:06.113Z,28.40
2018-04-07T08:50:41.224Z,28.70
2018-04-07T08:53:16.339Z,28.20
2018-04-07T08:55:52.298Z,29.40
2018-04-07T08:58:27.382Z,29.40
2018-04-07T09:01:02.622Z,29.10
2018-04-07T09:03:37.914Z,28.70
2018-04-07T09:06:13.015Z,28.50
2018-04-07T09:08:48.101Z,29.90
2018-04-07T09:11:23.206Z,30.40
2018-04-07T09:13:58.432Z,30.20
2018-04-07T09:16:33.687Z,29.30
2018-04-07T09:19:08.901Z,28.80
2018-04-07T09:21:44.005Z,28.40
2018-04-07T09:24:19.137Z,28.10
2018-04-07T09:26:54.360Z,27.70
2018-04-07T09:29:29.568Z,26.40
2018-04-07T09:32:04.949Z,26.70
2018-04-07T09:34:40.153Z,25.80
2018-04-07T09:37:16.168Z,24.60
2018-04-07T09:39:51.446Z,24.60
2018-04-07T09:42:26.694Z,26.80
2018-04-07T09:45:01.916Z,27.00
2018-04-07T09:47:37.151Z,26.00
2018-04-07T09:50:12.422Z,24.70
2018-04-07T09:52:47.638Z,25.80
2018-04-07T09:55:22.710Z,23.70
2018-04-07T09:57:57.989Z,25.50
2018-04-07T10:00:33.249Z,23.80
2018-04-07T10:03:08.402Z,24.80
2018-04-07T10:05:50.109Z,25.30
2018-04-07T10:08:25.226Z,25.60
2018-04-07T10:11:00.501Z,26.20
2018-04-07T10:13:35.697Z,26.00
2018-04-07T10:16:10.897Z,25.70
2018-04-07T10:18:46.738Z,23.50
2018-04-07T10:21:21.911Z,23.40
2018-04-07T10:23:57.049Z,23.80
2018-04-07T10:26:32.316Z,25.90
2018-04-07T10:29:07.519Z,26.10
2018-04-07T10:31:42.789Z,26.10
2018-04-07T10:34:18.886Z,25.30
2018-04-07T10:36:54.041Z,25.20
2018-04-07T10:39:29.121Z,24.50
2018-04-07T10:42:04.263Z,23.60
2018-04-07T10:44:40.318Z,25.00
2018-04-07T10:47:15.520Z,25.10
2018-04-07T10:49:50.594Z,24.60
2018-04-07T10:52:25.884Z,23.50
2018-04-07T10:55:01.114Z,24.00
2018-04-07T10:57:36.302Z,23.20
2018-04-07T11:00:11.683Z,24.80
2018-04-07T11:02:46.791Z,25.80
2018-04-07T11:05:22.122Z,25.40
2018-04-07T11:07:57.197Z,25.40
2018-04-07T11:10:32.459Z,25.30
2018-04-07T11:13:08.370Z,25.00
2018-04-07T11:15:43.549Z,25.00
2018-04-07T11:18:18.829Z,24.50
2018-04-07T11:20:54.073Z,26.00
2018-04-07T11:23:29.325Z,25.60
2018-04-07T11:26:04.540Z,26.20
2018-04-07T11:28:39.738Z,24.30
2018-04-07T11:31:14.953Z,23.70
2018-04-07T11:33:50.093Z,24.60
2018-04-07T11:36:25.318Z,25.00
2018-04-07T11:39:00.517Z,24.90
2018-04-07T11:41:36.488Z,25.90
2018-04-07T11:44:12.453Z,24.60
2018-04-07T11:46:47.637Z,24.60
2018-04-07T11:49:22.866Z,24.30
2018-04-07T11:51:58.110Z,25.10
2018-04-07T11:54:34.046Z,24.00
2018-04-07T11:57:09.142Z,24.00
2018-04-07T11:59:44.365Z,25.20
2018-04-07T12:02:19.608Z,25.90
2018-04-07T12:04:54.700Z,25.90
2018-04-07T12:07:29.893Z,25.80
2018-04-07T12:10:05.741Z,25.80
2018-04-07T12:12:40.851Z,25.80
2018-04-07T12:15:16.506Z,25.80
2018-04-07T12:17:51.845Z,25.40
2018-04-07T12:20:27.818Z,25.00
2018-04-07T12:23:03.802Z,25.20
2018-04-07T12:25:38.872Z,25.20
2018-04-07T12:28:14.748Z,23.80
2018-04-07T12:30:49.962Z,23.90
2018-04-07T12:33:25.172Z,24.50
2018-04-07T12:36:01.188Z,22.60
2018-04-07T12:38:36.270Z,22.60
2018-04-07T12:41:11.385Z,23.40
2018-04-07T12:43:46.750Z,24.00
2018-04-07T12:46:21.999Z,23.40
2018-04-07T12:48:57.258Z,23.90
2018-04-07T12:51:32.583Z,23.40
2018-04-07T12:54:07.702Z,24.10
2018-04-07T12:56:43.705Z,22.40
2018-04-07T12:59:18.794Z,22.40
2018-04-07T13:01:54.009Z,23.20
2018-04-07T13:04:29.352Z,24.00
2018-04-07T13:07:04.708Z,23.80
2018-04-07T13:09:39.924Z,23.70
2018-04-07T13:12:15.823Z,24.20
2018-04-07T13:14:51.002Z,24.20
2018-04-07T13:17:26.294Z,25.00
2018-04-07T13:20:01.571Z,24.90
2018-04-07T13:22:36.706Z,24.70
2018-04-07T13:25:11.980Z,21.90
2018-04-07T13:27:47.813Z,24.00
2018-04-07T13:30:22.962Z,23.80
2018-04-07T13:32:58.055Z,23.60
2018-04-07T13:35:33.451Z,23.50
2018-04-07T13:38:08.725Z,22.20
2018-04-07T13:40:44.002Z,22.30
2018-04-07T13:43:19.219Z,23.20
2018-04-07T13:45:54.454Z,22.30
2018-04-07T13:48:30.554Z,24.10
2018-04-07T13:51:05.866Z,23.20
2018-04-07T13:53:41.140Z,22.30
2018-04-07T13:56:16.326Z,22.60
2018-04-07T13:58:52.365Z,24.80
2018-04-07T14:01:27.419Z,24.60
2018-04-07T14:04:02.649Z,21.70
2018-04-07T14:06:38.654Z,22.40
2018-04-07T14:09:13.954Z,22.40
2018-04-07T14:11:49.195Z,22.90
2018-04-07T14:14:24.366Z,21.40
2018-04-07T14:17:00.305Z,21.40
2018-04-07T14:19:35.467Z,21.40
2018-04-07T14:22:10.570Z,21.30
2018-04-07T14:24:45.713Z,21.30
2018-04-07T14:27:21.608Z,20.50
2018-04-07T14:29:56.759Z,20.40
2018-04-07T14:32:32.719Z,21.20
2018-04-07T14:35:07.893Z,21.10
2018-04-07T14:37:43.033Z,21.10
2018-04-07T14:40:18.141Z,22.20
2018-04-07T14:42:53.963Z,21.20
2018-04-07T14:45:29.175Z,20.50
2018-04-07T14:48:04.482Z,21.40
2018-04-07T14:50:39.798Z,21.00
2018-04-07T14:53:15.015Z,21.00
2018-04-07T14:55:50.263Z,22.30
2018-04-07T14:58:26.329Z,20.70
2018-04-07T15:01:02.171Z,21.80
2018-04-07T15:03:37.280Z,21.70
2018-04-07T15:06:12.475Z,21.90
2018-04-07T15:08:47.581Z,21.70
2018-04-07T15:11:22.854Z,21.10
2018-04-07T15:13:58.074Z,21.80
2018-04-07T15:16:33.341Z,22.00
2018-04-07T15:19:08.666Z,21.30
2018-04-07T15:21:43.965Z,21.10
2018-04-07T15:24:20.002Z,22.10
2018-04-07T15:26:55.103Z,21.50
2018-04-07T15:29:31.054Z,22.30
2018-04-07T15:32:06.217Z,22.30
2018-04-07T15:34:41.436Z,22.60
2018-04-07T15:37:16.605Z,21.10
2018-04-07T15:39:52.514Z,22.00
2018-04-07T15:42:27.759Z,22.00
2018-04-07T15:45:02.963Z,22.00
2018-04-07T15:47:38.024Z,21.80
2018-04-07T15:50:13.806Z,21.10
2018-04-07T15:52:49.022Z,20.40
2018-04-07T15:55:24.359Z,20.30
2018-04-07T15:57:59.618Z,20.40
2018-04-07T16:00:34.887Z,21.10
2018-04-07T16:03:10.148Z,19.70
2018-04-07T16:05:45.476Z,20.00
2018-04-07T16:08:21.356Z,20.40
2018-04-07T16:10:56.461Z,20.40
2018-04-07T16:13:31.567Z,19.30
2018-04-07T16:16:06.813Z,19.70
2018-04-07T16:18:41.968Z,19.60
2018-04-07T16:21:17.158Z,19.70
2018-04-07T16:23:53.159Z,19.10
2018-04-07T16:26:28.283Z,19.10
2018-04-07T16:29:03.515Z,19.50
2018-04-07T16:31:38.723Z,19.60
2018-04-07T16:34:14.003Z,20.00
2018-04-07T16:36:49.058Z,20.10
2018-04-07T16:39:24.134Z,20.20
2018-04-07T16:41:59.311Z,20.80
2018-04-07T16:44:34.538Z,20.80
2018-04-07T16:47:09.801Z,20.60
2018-04-07T16:49:45.113Z,20.30
2018-04-07T16:52:20.333Z,20.20
2018-04-07T16:54:56.363Z,20.00
2018-04-07T16:57:31.451Z,20.00
2018-04-07T17:00:06.818Z,19.40
2018-04-07T17:02:42.034Z,19.40
2018-04-07T17:05:17.261Z,19.30
2018-04-07T17:07:52.331Z,18.70
2018-04-07T17:10:27.510Z,18.50
2018-04-07T17:13:02.830Z,18.10
2018-04-07T17:15:38.070Z,17.10
2018-04-07T17:18:13.304Z,17.30
2018-04-07T17:20:48.326Z,16.90
2018-04-07T17:23:23.607Z,16.60
2018-04-07T17:25:59.610Z,16.90
2018-04-07T17:28:34.849Z,17.10
2018-04-07T17:31:10.287Z,17.10
2018-04-07T17:33:45.502Z,17.00
2018-04-07T17:36:20.630Z,17.10
2018-04-07T17:38:55.783Z,17.40
2018-04-07T17:41:31.139Z,17.70
2018-04-07T17:44:06.351Z,18.50
2018-04-07T17:46:41.644Z,19.10
2018-04-07T17:49:16.918Z,19.40
2018-04-07T17:51:52.109Z,19.60
2018-04-07T17:54:27.378Z,20.00
2018-04-07T17:57:02.696Z,20.50
2018-04-07T17:59:38.041Z,20.70
2018-04-07T18:02:13.267Z,21.20
2018-04-07T18:04:48.442Z,21.50
2018-04-07T18:07:23.696Z,22.00
2018-04-07T18:09:58.906Z,22.60
2018-04-07T18:12:34.806Z,23.30
2018-04-07T18:15:10.011Z,23.30
2018-04-07T18:17:45.999Z,24.30
2018-04-07T18:20:21.075Z,24.30
2018-04-07T18:22:56.252Z,24.30
2018-04-07T18:25:31.452Z,24.80
2018-04-07T18:28:06.692Z,24.90
2018-04-07T18:30:41.764Z,25.10
2018-04-07T18:33:16.910Z,25.50
2018-04-07T18:35:52.085Z,25.70
2018-04-07T18:38:27.339Z,26.00
2018-04-07T18:41:03.301Z,26.50
2018-04-07T18:43:38.412Z,26.50
2018-04-07T18:46:13.638Z,26.90
2018-04-07T18:48:49.635Z,27.00
2018-04-07T18:51:24.759Z,27.00
2018-04-07T18:54:00.018Z,27.30
2018-04-07T18:56:35.156Z,27.70
2018-04-07T18:59:10.342Z,28.10
2018-04-07T19:01:45.553Z,28.30
2018-04-07T19:04:20.791Z,28.10
2018-04-07T19:06:55.951Z,28.30
2018-04-07T19:09:31.215Z,28.40
2018-04-07T19:12:06.375Z,27.80
2018-04-07T19:14:41.557Z,27.90
2018-04-07T19:17:16.846Z,29.10
2018-04-07T19:19:52.039Z,29.60
2018-04-07T19:22:27.273Z,30.50
2018-04-07T19:25:02.798Z,31.10
2018-04-07T19:27:38.051Z,30.90
2018-04-07T19:30:14.044Z,31.90
2018-04-07T19:32:49.329Z,31.90
2018-04-07T19:35:25.320Z,32.80
2018-04-07T19:38:00.642Z,32.80
2018-04-07T19:40:35.763Z,33.10
2018-04-07T19:43:11.311Z,33.50
2018-04-07T19:45:46.582Z,34.00
2018-04-07T19:48:21.896Z,34.70
2018-04-07T19:50:57.133Z,35.10
2018-04-07T19:53:32.444Z,36.00
2018-04-07T19:56:08.136Z,35.50
2018-04-07T19:58:43.364Z,35.70
2018-04-07T20:01:18.592Z,36.60
2018-04-07T20:03:53.736Z,36.70
2018-04-07T20:06:29.030Z,37.10
2018-04-07T20:09:06.081Z,37.90
2018-04-07T20:11:41.267Z,38.50
2018-04-07T20:14:16.470Z,39.40
2018-04-07T20:16:51.693Z,39.80
2018-04-07T20:19:26.958Z,40.40
2018-04-07T20:22:02.205Z,41.20
2018-04-07T20:24:37.320Z,41.50
2018-04-07T20:27:12.541Z,42.30
2018-04-07T20:29:47.885Z,42.30
2018-04-07T20:32:23.142Z,42.20
2018-04-07T20:34:58.308Z,42.50
2018-04-07T20:37:33.429Z,42.40
2018-04-07T20:40:08.591Z,42.60
2018-04-07T20:42:44.580Z,43.80
2018-04-07T20:45:19.878Z,43.80
2018-04-07T20:47:55.809Z,45.30
2018-04-07T20:50:30.926Z,44.40
2018-04-07T20:53:06.148Z,45.20
2018-04-07T20:55:41.410Z,44.60
2018-04-07T20:58:16.648Z,46.50
2018-04-07T21:00:51.859Z,46.20
2018-04-07T21:03:26.906Z,46.00
2018-04-07T21:06:02.971Z,47.40
2018-04-07T21:08:38.969Z,46.80
2018-04-07T21:11:15.009Z,46.80
2018-04-07T21:13:50.326Z,46.80
2018-04-07T21:16:25.438Z,46.50
2018-04-07T21:19:00.682Z,46.70
2018-04-07T21:21:36.023Z,47.10
2018-04-07T21:24:11.929Z,48.40
2018-04-07T21:26:47.067Z,48.40
2018-04-07T21:29:22.259Z,47.70
2018-04-07T21:31:57.867Z,48.70
2018-04-07T21:34:33.153Z,49.00
2018-04-07T21:37:08.448Z,49.60
2018-04-07T21:39:43.518Z,49.60
2018-04-07T21:42:18.629Z,49.40
2018-04-07T21:44:53.763Z,49.10
2018-04-07T21:47:28.910Z,51.00
2018-04-07T21:50:04.143Z,51.10
2018-04-07T21:52:39.333Z,51.10
2018-04-07T21:55:14.677Z,51.90
2018-04-07T21:57:49.975Z,51.70
2018-04-07T22:00:25.167Z,51.20
2018-04-07T22:03:00.271Z,52.50
2018-04-07T22:05:36.052Z,50.80
2018-04-07T22:08:11.311Z,51.10
2018-04-07T22:10:46.521Z,51.40
2018-04-07T22:13:21.695Z,51.10
2018-04-07T22:15:57.019Z,50.90
2018-04-07T22:18:32.246Z,52.20
2018-04-07T22:21:07.460Z,51.80
2018-04-07T22:23:42.680Z,53.50
2018-04-07T22:26:18.662Z,52.40
2018-04-07T22:28:54.622Z,52.20
2018-04-07T22:31:29.830Z,52.20
2018-04-07T22:34:05.239Z,53.40
2018-04-07T22:36:41.292Z,52.80
2018-04-07T22:39:16.554Z,52.70
2018-04-07T22:41:51.683Z,54.40
2018-04-07T22:44:26.947Z,54.10
2018-04-07T22:47:02.058Z,53.60
2018-04-07T22:49:37.181Z,54.80
2018-04-07T22:52:12.247Z,54.00
2018-04-07T22:54:47.602Z,54.40
2018-04-07T22:57:22.687Z,54.60
2018-04-07T22:59:58.678Z,56.30
2018-04-07T23:02:33.819Z,56.30
2018-04-07T23:05:09.083Z,56.20
2018-04-07T23:07:44.359Z,56.50
2018-04-07T23:10:19.722Z,56.70
2018-04-07T23:12:54.939Z,57.10
2018-04-07T23:15:30.211Z,57.40
2018-04-07T23:18:05.336Z,55.40
2018-04-07T23:20:40.577Z,55.30
2018-04-07T23:23:15.858Z,55.10
2018-04-07T23:25:51.196Z,54.20
2018-04-07T23:28:26.223Z,56.10
2018-04-07T23:31:01.378Z,54.20
2018-04-07T23:33:37.446Z,55.60
2018-04-07T23:36:12.689Z,55.60
2018-04-07T23:38:47.918Z,56.80
2018-04-07T23:41:23.153Z,56.70
2018-04-07T23:43:58.222Z,56.20
2018-04-07T23:46:33.432Z,56.50
2018-04-07T23:49:08.638Z,56.80
2018-04-07T23:51:43.874Z,54.60
2018-04-07T23:54:19.102Z,57.00
2018-04-07T23:56:54.372Z,53.40
2018-04-07T23:59:29.547Z,53.50
